Time,TemperatureF,DewpointF,PressureIn,WindDirection,WindDirectionDegrees,WindSpeedMPH,WindSpeedGustMPH,Humidity,HourlyPrecipIn,Conditions,Clouds,dailyrainin,SoftwareType,DateUTC
2013-06-19 00:02:00,56.9,50.8,29.98,South,180,0.9,4.0,80,0.00,,,0.00,WUHU216HW,2013-06-19 07:02:00,
2013-06-19 00:07:00,57.1,50.9,29.98,WSW,248,0.7,2.7,80,0.00,,,0.00,WUHU216HW,2013-06-19 07:07:00,
2013-06-19 00:13:00,56.9,51.1,29.98,SW,225,3.6,3.6,81,0.00,,,0.00,WUHU216HW,2013-06-19 07:13:00,
2013-06-19 00:18:00,56.7,51.0,29.98,WSW,248,3.4,3.6,81,0.00,,,0.00,WUHU216HW,2013-06-19 07:18:00,
2013-06-19 00:23:00,56.7,51.0,29.97,SW,225,2.2,5.4,81,0.00,,,0.00,WUHU216HW,2013-06-19 07:23:00,
2013-06-19 00:28:00,56.5,50.8,29.97,SW,225,1.3,5.4,81,0.00,,,0.00,WUHU216HW,2013-06-19 07:28:00,
2013-06-19 00:33:00,56.5,50.8,29.97,West,270,1.8,2.5,81,0.00,,,0.00,WUHU216HW,2013-06-19 07:33:00,
2013-06-19 00:38:00,56.3,50.6,29.97,SW,225,0.9,2.5,81,0.00,,,0.00,WUHU216HW,2013-06-19 07:38:00,
2013-06-19 00:43:00,56.3,50.6,29.97,West,270,0.0,2.5,81,0.00,,,0.00,WUHU216HW,2013-06-19 07:43:00,
2013-06-19 00:48:00,56.3,50.6,29.97,South,180,1.6,1.6,81,0.00,,,0.00,WUHU216HW,2013-06-19 07:48:00,
2013-06-19 00:53:00,56.3,50.6,29.97,SW,225,1.3,2.2,81,0.00,,,0.00,WUHU216HW,2013-06-19 07:53:00,
2013-06-19 00:58:00,56.3,50.6,29.97,SSE,158,0.9,2.2,81,0.00,,,0.00,WUHU216HW,2013-06-19 07:58:00,
2013-06-19 01:03:00,56.3,50.6,29.98,WNW,293,0.7,1.6,81,0.00,,,0.00,WUHU216HW,2013-06-19 08:03:00,
2013-06-19 01:08:00,56.3,50.6,29.97,NNW,338,0.4,1.1,81,0.00,,,0.00,WUHU216HW,2013-06-19 08:08:00,
2013-06-19 01:13:00,56.3,50.6,29.97,WSW,248,2.0,2.0,81,0.00,,,0.00,WUHU216HW,2013-06-19 08:13:00,
2013-06-19 01:18:00,56.3,50.6,29.97,SSW,203,0.4,3.4,81,0.00,,,0.00,WUHU216HW,2013-06-19 08:18:00,
2013-06-19 01:23:00,56.2,50.4,29.97,West,270,1.8,3.4,81,0.00,,,0.00,WUHU216HW,2013-06-19 08:23:00,
2013-06-19 01:28:00,56.0,50.5,29.97,SW,225,0.7,2.0,82,0.00,,,0.00,WUHU216HW,2013-06-19 08:28:00,
2013-06-19 01:34:00,55.8,50.1,29.97,SE,135,0.2,1.8,81,0.00,,,0.00,WUHU216HW,2013-06-19 08:34:00,
2013-06-19 01:39:00,55.8,50.1,29.97,WSW,248,0.9,1.8,81,0.00,,,0.00,WUHU216HW,2013-06-19 08:39:00,
2013-06-19 01:44:00,55.8,50.1,29.97,West,270,0.0,1.8,81,0.00,,,0.00,WUHU216HW,2013-06-19 08:44:00,
2013-06-19 01:49:00,55.6,49.9,29.97,SW,225,0.2,1.8,81,0.00,,,0.00,WUHU216HW,2013-06-19 08:49:00,
2013-06-19 01:54:00,55.4,49.3,29.97,WSW,248,0.0,0.7,80,0.00,,,0.00,WUHU216HW,2013-06-19 08:54:00,
2013-06-19 01:59:00,55.3,49.5,29.97,SW,225,0.4,1.1,81,0.00,,,0.00,WUHU216HW,2013-06-19 08:59:00,
2013-06-19 02:04:00,55.1,49.3,29.97,South,180,1.1,1.1,81,0.00,,,0.00,WUHU216HW,2013-06-19 09:04:00,
2013-06-19 02:09:00,55.1,49.0,29.97,SE,135,0.4,1.1,80,0.00,,,0.00,WUHU216HW,2013-06-19 09:09:00,
2013-06-19 02:14:00,55.3,49.5,29.97,SSE,158,0.4,0.9,81,0.00,,,0.00,WUHU216HW,2013-06-19 09:14:00,
2013-06-19 02:19:00,55.3,49.5,29.97,SW,225,0.0,1.1,81,0.00,,,0.00,WUHU216HW,2013-06-19 09:19:00,
2013-06-19 02:24:00,55.3,49.5,29.97,SW,225,0.0,1.1,81,0.00,,,0.00,WUHU216HW,2013-06-19 09:24:00,
2013-06-19 02:29:00,55.1,49.3,29.97,SE,135,0.2,0.7,81,0.00,,,0.00,WUHU216HW,2013-06-19 09:29:00,
2013-06-19 02:34:00,55.1,49.3,29.96,East,90,0.4,1.1,81,0.00,,,0.00,WUHU216HW,2013-06-19 09:34:00,
2013-06-19 02:39:00,55.1,49.3,29.97,SE,135,0.4,1.8,81,0.00,,,0.00,WUHU216HW,2013-06-19 09:39:00,
2013-06-19 02:44:00,55.1,49.3,29.97,SW,225,0.4,1.8,81,0.00,,,0.00,WUHU216HW,2013-06-19 09:44:00,
2013-06-19 02:49:00,55.1,49.3,29.97,SW,225,0.4,1.1,81,0.00,,,0.00,WUHU216HW,2013-06-19 09:49:00,
2013-06-19 02:54:00,55.1,49.3,29.97,SW,225,2.2,2.2,81,0.00,,,0.00,WUHU216HW,2013-06-19 09:54:00,
2013-06-19 03:00:00,55.3,49.5,29.97,SSE,158,0.2,2.2,81,0.00,,,0.00,WUHU216HW,2013-06-19 10:00:00,
2013-06-19 03:05:00,55.3,49.5,29.97,WSW,248,0.4,1.1,81,0.00,,,0.00,WUHU216HW,2013-06-19 10:05:00,
2013-06-19 03:10:00,55.3,49.5,29.97,SW,225,0.0,1.8,81,0.00,,,0.00,WUHU216HW,2013-06-19 10:10:00,
2013-06-19 03:15:00,55.3,49.8,29.97,WSW,248,0.0,1.8,82,0.00,,,0.00,WUHU216HW,2013-06-19 10:15:00,
2013-06-19 03:20:00,55.3,49.8,29.97,WSW,248,0.9,1.6,82,0.00,,,0.00,WUHU216HW,2013-06-19 10:20:00,
2013-06-19 03:25:00,55.3,49.8,29.97,SSW,203,0.9,1.1,82,0.00,,,0.00,WUHU216HW,2013-06-19 10:25:00,
2013-06-19 03:30:00,55.3,49.8,29.97,South,180,0.0,2.0,82,0.00,,,0.00,WUHU216HW,2013-06-19 10:30:00,
2013-06-19 03:35:00,55.3,49.8,29.97,SW,225,0.4,2.0,82,0.00,,,0.00,WUHU216HW,2013-06-19 10:35:00,
2013-06-19 03:40:00,55.1,49.7,29.97,SSW,203,0.4,1.8,82,0.00,,,0.00,WUHU216HW,2013-06-19 10:40:00,
2013-06-19 03:45:00,55.1,49.7,29.97,SSE,158,0.9,2.9,82,0.00,,,0.00,WUHU216HW,2013-06-19 10:45:00,
2013-06-19 03:50:00,55.1,49.7,29.97,SW,225,1.1,2.9,82,0.00,,,0.00,WUHU216HW,2013-06-19 10:50:00,
2013-06-19 03:55:00,55.1,49.7,29.97,SW,225,0.2,1.8,82,0.00,,,0.00,WUHU216HW,2013-06-19 10:55:00,
2013-06-19 04:00:00,55.1,49.7,29.97,SSW,203,1.8,1.8,82,0.00,,,0.00,WUHU216HW,2013-06-19 11:00:00,
2013-06-19 04:05:00,55.1,49.7,29.97,South,180,0.0,1.8,82,0.00,,,0.00,WUHU216HW,2013-06-19 11:05:00,
2013-06-19 04:10:00,54.9,49.5,29.97,West,270,0.4,1.6,82,0.00,,,0.00,WUHU216HW,2013-06-19 11:10:00,
2013-06-19 04:15:00,55.1,49.7,29.97,SW,225,1.1,1.6,82,0.00,,,0.00,WUHU216HW,2013-06-19 11:15:00,
2013-06-19 04:20:00,55.1,49.7,29.97,SW,225,0.0,1.1,82,0.00,,,0.00,WUHU216HW,2013-06-19 11:20:00,
2013-06-19 04:26:00,55.1,49.7,29.97,South,180,0.9,0.9,82,0.00,,,0.00,WUHU216HW,2013-06-19 11:26:00,
2013-06-19 04:31:00,55.1,49.7,29.97,SSW,203,0.4,1.8,82,0.00,,,0.00,WUHU216HW,2013-06-19 11:31:00,
2013-06-19 04:36:00,55.1,49.7,29.97,South,180,0.9,1.8,82,0.00,,,0.00,WUHU216HW,2013-06-19 11:36:00,
2013-06-19 04:41:00,55.1,49.7,29.97,SE,135,1.1,2.0,82,0.00,,,0.00,WUHU216HW,2013-06-19 11:41:00,
2013-06-19 04:46:00,55.1,49.7,29.97,ESE,113,0.2,2.0,82,0.00,,,0.00,WUHU216HW,2013-06-19 11:46:00,
2013-06-19 04:51:00,55.1,49.7,29.97,SSE,158,0.7,0.9,82,0.00,,,0.00,WUHU216HW,2013-06-19 11:51:00,
2013-06-19 04:56:00,55.3,50.1,29.96,SSW,203,0.4,1.1,83,0.00,,,0.00,WUHU216HW,2013-06-19 11:56:00,
2013-06-19 05:01:00,55.3,50.1,29.96,ESE,113,0.2,1.1,83,0.00,,,0.00,WUHU216HW,2013-06-19 12:01:00,
2013-06-19 05:06:00,55.3,49.8,29.96,SSE,158,0.4,1.1,82,0.00,,,0.00,WUHU216HW,2013-06-19 12:06:00,
2013-06-19 05:11:00,55.3,50.1,29.97,SW,225,0.4,0.9,83,0.00,,,0.00,WUHU216HW,2013-06-19 12:11:00,
2013-06-19 05:16:00,55.3,50.1,29.97,SE,135,1.8,1.8,83,0.00,,,0.00,WUHU216HW,2013-06-19 12:16:00,
2013-06-19 05:21:00,55.3,50.1,29.96,SSW,203,0.7,1.8,83,0.00,,,0.00,WUHU216HW,2013-06-19 12:21:00,
2013-06-19 05:26:00,55.3,50.1,29.97,SSW,203,0.4,1.1,83,0.00,,,0.00,WUHU216HW,2013-06-19 12:26:00,
2013-06-19 05:31:00,55.3,50.1,29.97,SSW,203,0.4,1.1,83,0.00,,,0.00,WUHU216HW,2013-06-19 12:31:00,
2013-06-19 05:36:00,55.3,50.1,29.97,SSE,158,0.0,1.8,83,0.00,,,0.00,WUHU216HW,2013-06-19 12:36:00,
2013-06-19 05:41:00,55.4,50.3,29.97,ENE,68,0.4,1.8,83,0.00,,,0.00,WUHU216HW,2013-06-19 12:41:00,
2013-06-19 05:46:00,55.4,50.0,29.97,SSE,158,0.7,0.7,82,0.00,,,0.00,WUHU216HW,2013-06-19 12:46:00,
2013-06-19 05:51:00,55.4,50.3,29.97,SE,135,1.3,2.2,83,0.00,,,0.00,WUHU216HW,2013-06-19 12:51:00,
2013-06-19 05:57:00,55.4,50.3,29.97,ESE,113,0.0,2.2,83,0.00,,,0.00,WUHU216HW,2013-06-19 12:57:00,
2013-06-19 06:02:00,55.4,50.3,29.97,SW,225,0.7,1.1,83,0.00,,,0.00,WUHU216HW,2013-06-19 13:02:00,
2013-06-19 06:07:00,55.4,50.0,29.97,SE,135,0.0,1.3,82,0.00,,,0.00,WUHU216HW,2013-06-19 13:07:00,
2013-06-19 06:12:00,55.4,50.3,29.97,WSW,248,0.4,1.3,83,0.00,,,0.00,WUHU216HW,2013-06-19 13:12:00,
2013-06-19 06:17:00,55.4,50.0,29.97,ESE,113,0.2,0.7,82,0.00,,,0.00,WUHU216HW,2013-06-19 13:17:00,
2013-06-19 06:22:00,55.4,50.0,29.97,ESE,113,0.0,0.7,82,0.00,,,0.00,WUHU216HW,2013-06-19 13:22:00,
2013-06-19 06:27:00,55.4,50.0,29.97,SE,135,0.9,0.9,82,0.00,,,0.00,WUHU216HW,2013-06-19 13:27:00,
2013-06-19 06:32:00,55.4,50.0,29.97,SE,135,0.4,1.1,82,0.00,,,0.00,WUHU216HW,2013-06-19 13:32:00,
2013-06-19 06:37:00,55.4,50.0,29.98,SE,135,1.3,1.3,82,0.00,,,0.00,WUHU216HW,2013-06-19 13:37:00,
2013-06-19 06:42:00,55.4,50.0,29.98,SSW,203,0.2,1.3,82,0.00,,,0.00,WUHU216HW,2013-06-19 13:42:00,
2013-06-19 06:47:00,55.4,50.0,29.98,SE,135,0.4,1.1,82,0.00,,,0.00,WUHU216HW,2013-06-19 13:47:00,
2013-06-19 06:52:00,55.4,50.0,29.98,ESE,113,1.1,1.1,82,0.00,,,0.00,WUHU216HW,2013-06-19 13:52:00,
2013-06-19 06:57:00,55.4,50.0,29.98,SW,225,0.2,1.1,82,0.00,,,0.00,WUHU216HW,2013-06-19 13:57:00,
2013-06-19 07:02:00,55.8,50.3,29.98,WSW,248,1.6,1.6,82,0.00,,,0.00,WUHU216HW,2013-06-19 14:02:00,
2013-06-19 07:07:00,56.5,51.0,29.98,SW,225,0.7,1.6,82,0.00,,,0.00,WUHU216HW,2013-06-19 14:07:00,
2013-06-19 07:12:00,56.7,51.6,29.98,South,180,1.3,1.3,83,0.00,,,0.00,WUHU216HW,2013-06-19 14:12:00,
2013-06-19 07:17:00,56.7,51.2,29.98,SSE,158,0.4,1.8,82,0.00,,,0.00,WUHU216HW,2013-06-19 14:17:00,
2013-06-19 07:23:00,56.5,51.0,29.98,South,180,0.4,1.8,82,0.00,,,0.00,WUHU216HW,2013-06-19 14:23:00,
2013-06-19 07:28:00,56.5,51.0,29.98,WSW,248,0.4,1.3,82,0.00,,,0.00,WUHU216HW,2013-06-19 14:28:00,
2013-06-19 07:33:00,56.5,51.0,29.99,SE,135,0.9,1.3,82,0.00,,,0.00,WUHU216HW,2013-06-19 14:33:00,
2013-06-19 07:38:00,56.5,51.0,29.99,SSW,203,0.4,1.8,82,0.00,,,0.00,WUHU216HW,2013-06-19 14:38:00,
2013-06-19 07:43:00,56.5,51.0,29.99,SSE,158,0.0,1.8,82,0.00,,,0.00,WUHU216HW,2013-06-19 14:43:00,
2013-06-19 07:48:00,56.9,51.1,29.99,SW,225,0.4,1.6,81,0.00,,,0.00,WUHU216HW,2013-06-19 14:48:00,
2013-06-19 07:53:00,57.2,51.5,29.99,SE,135,1.3,1.8,81,0.00,,,0.00,WUHU216HW,2013-06-19 14:53:00,
2013-06-19 07:58:00,57.8,52.0,29.99,SSE,158,0.4,2.5,81,0.00,,,0.00,WUHU216HW,2013-06-19 14:58:00,
2013-06-19 08:03:00,58.3,52.2,29.99,NW,315,0.2,2.5,80,0.00,,,0.00,WUHU216HW,2013-06-19 15:03:00,
2013-06-19 08:08:00,58.7,52.2,29.99,SW,225,0.4,1.1,79,0.00,,,0.00,WUHU216HW,2013-06-19 15:08:00,
2013-06-19 08:13:00,59.0,52.6,29.99,WSW,248,2.5,2.5,79,0.00,,,0.00,WUHU216HW,2013-06-19 15:13:00,
2013-06-19 08:18:00,59.4,52.6,29.99,NW,315,0.9,2.7,78,0.00,,,0.00,WUHU216HW,2013-06-19 15:18:00,
2013-06-19 08:23:00,59.6,52.4,29.99,SSE,158,0.9,2.7,77,0.00,,,0.00,WUHU216HW,2013-06-19 15:23:00,
2013-06-19 08:28:00,59.2,51.7,29.99,WSW,248,0.4,1.1,76,0.00,,,0.00,WUHU216HW,2013-06-19 15:28:00,
2013-06-19 08:33:00,59.2,51.7,29.99,SSW,203,1.3,1.8,76,0.00,,,0.00,WUHU216HW,2013-06-19 15:33:00,
2013-06-19 08:38:00,59.6,51.3,29.99,WSW,248,0.4,2.2,74,0.00,,,0.00,WUHU216HW,2013-06-19 15:38:00,
2013-06-19 08:44:00,59.9,51.7,29.99,ENE,68,2.0,2.2,74,0.00,,,0.00,WUHU216HW,2013-06-19 15:44:00,
2013-06-19 08:49:00,60.3,52.0,29.99,SE,135,0.7,2.9,74,0.00,,,0.00,WUHU216HW,2013-06-19 15:49:00,
2013-06-19 08:54:00,61.0,52.8,29.99,SSW,203,0.7,2.9,74,0.00,,,0.00,WUHU216HW,2013-06-19 15:54:00,
2013-06-19 08:59:00,61.7,53.0,30.00,SSE,158,1.1,2.7,73,0.00,,,0.00,WUHU216HW,2013-06-19 15:59:00,
2013-06-19 09:04:00,61.7,53.0,30.00,SSW,203,1.6,2.7,73,0.00,,,0.00,WUHU216HW,2013-06-19 16:04:00,
2013-06-19 09:09:00,61.6,52.5,30.00,South,180,0.2,2.2,72,0.00,,,0.00,WUHU216HW,2013-06-19 16:09:00,
2013-06-19 09:14:00,61.6,52.5,30.00,SSW,203,0.2,2.9,72,0.00,,,0.00,WUHU216HW,2013-06-19 16:14:00,
2013-06-19 09:19:00,61.7,52.7,29.99,SSE,158,0.2,2.9,72,0.00,,,0.00,WUHU216HW,2013-06-19 16:19:00,
2013-06-19 09:24:00,62.3,53.1,29.99,SE,135,2.5,3.4,72,0.00,,,0.00,WUHU216HW,2013-06-19 16:24:00,
2013-06-19 09:29:00,62.8,53.6,29.99,WSW,248,0.4,3.4,72,0.00,,,0.00,WUHU216HW,2013-06-19 16:29:00,
2013-06-19 09:34:00,62.8,52.5,29.99,SSE,158,2.5,2.5,69,0.00,,,0.00,WUHU216HW,2013-06-19 16:34:00,
2013-06-19 09:39:00,63.4,53.5,29.99,ESE,113,1.6,4.5,70,0.00,,,0.00,WUHU216HW,2013-06-19 16:39:00,
2013-06-19 09:44:00,63.9,51.8,29.99,WNW,293,2.5,4.5,65,0.00,,,0.00,WUHU216HW,2013-06-19 16:44:00,
2013-06-19 09:49:00,63.2,51.2,29.99,SW,225,1.8,2.5,65,0.00,,,0.00,WUHU216HW,2013-06-19 16:49:00,
2013-06-19 09:55:00,63.4,52.7,29.99,ESE,113,0.7,2.2,68,0.00,,,0.00,WUHU216HW,2013-06-19 16:55:00,
2013-06-19 10:00:00,63.5,51.9,29.99,WSW,248,2.7,2.7,66,0.00,,,0.00,WUHU216HW,2013-06-19 17:00:00,
2013-06-19 10:05:00,63.4,52.2,29.99,West,270,1.8,2.7,67,0.00,,,0.00,WUHU216HW,2013-06-19 17:05:00,
2013-06-19 10:10:00,63.9,52.8,29.99,SSW,203,1.8,4.0,67,0.00,,,0.00,WUHU216HW,2013-06-19 17:10:00,
2013-06-19 10:15:00,64.8,53.6,29.99,SSE,158,2.0,4.0,67,0.00,,,0.00,WUHU216HW,2013-06-19 17:15:00,
2013-06-19 10:20:00,65.9,53.7,29.99,SW,225,3.4,4.0,65,0.00,,,0.00,WUHU216HW,2013-06-19 17:20:00,
2013-06-19 10:25:00,65.7,53.2,29.99,WSW,248,0.2,3.4,64,0.00,,,0.00,WUHU216HW,2013-06-19 17:25:00,
2013-06-19 10:30:00,65.3,52.8,29.99,NW,315,1.8,2.9,64,0.00,,,0.00,WUHU216HW,2013-06-19 17:30:00,
2013-06-19 10:35:00,65.0,52.9,29.99,SW,225,2.7,3.8,65,0.00,,,0.00,WUHU216HW,2013-06-19 17:35:00,
2013-06-19 10:40:00,65.3,53.3,30.00,SW,225,1.8,3.8,65,0.00,,,0.00,WUHU216HW,2013-06-19 17:40:00,
2013-06-19 10:45:00,65.9,53.7,30.00,SE,135,2.5,2.5,65,0.00,,,0.00,WUHU216HW,2013-06-19 17:45:00,
2013-06-19 10:50:00,65.9,52.9,30.00,ESE,113,2.9,2.9,63,0.00,,,0.00,WUHU216HW,2013-06-19 17:50:00,
2013-06-19 10:55:00,66.2,53.3,30.00,WSW,248,4.5,4.5,63,0.00,,,0.00,WUHU216HW,2013-06-19 17:55:00,
2013-06-19 11:00:00,66.8,54.2,30.00,SSE,158,2.2,4.5,64,0.00,,,0.00,WUHU216HW,2013-06-19 18:00:00,
2013-06-19 11:05:00,67.7,54.6,30.00,SE,135,1.8,3.4,63,0.00,,,0.00,WUHU216HW,2013-06-19 18:05:00,
2013-06-19 11:10:00,68.6,55.0,30.00,SSE,158,0.4,3.4,62,0.00,,,0.00,WUHU216HW,2013-06-19 18:10:00,
2013-06-19 11:16:00,68.8,53.4,29.99,WSW,248,1.6,1.6,58,0.00,,,0.00,WUHU216HW,2013-06-19 18:16:00,
2013-06-19 11:21:00,67.5,51.7,30.00,WNW,293,1.3,2.2,57,0.00,,,0.00,WUHU216HW,2013-06-19 18:21:00,
2013-06-19 11:26:00,66.6,50.9,29.99,NNW,338,1.1,4.0,57,0.00,,,0.00,WUHU216HW,2013-06-19 18:26:00,
2013-06-19 11:31:00,65.5,51.3,29.99,NW,315,2.5,4.0,60,0.00,,,0.00,WUHU216HW,2013-06-19 18:31:00,
2013-06-19 11:36:00,65.5,51.3,29.99,West,270,1.8,4.3,60,0.00,,,0.00,WUHU216HW,2013-06-19 18:36:00,
2013-06-19 11:41:00,65.9,51.2,29.99,NW,315,1.1,4.3,59,0.00,,,0.00,WUHU216HW,2013-06-19 18:41:00,
2013-06-19 11:46:00,65.7,51.5,29.99,WSW,248,2.5,3.4,60,0.00,,,0.00,WUHU216HW,2013-06-19 18:46:00,
2013-06-19 11:51:00,66.2,51.6,29.99,SSE,158,0.9,3.1,59,0.00,,,0.00,WUHU216HW,2013-06-19 18:51:00,
2013-06-19 11:56:00,67.3,52.5,29.99,WNW,293,2.2,3.1,59,0.00,,,0.00,WUHU216HW,2013-06-19 18:56:00,
2013-06-19 12:01:00,66.4,51.2,29.99,WSW,248,3.1,3.1,58,0.00,,,0.00,WUHU216HW,2013-06-19 19:01:00,
2013-06-19 12:06:00,67.3,52.5,29.99,SW,225,2.5,3.6,59,0.00,,,0.00,WUHU216HW,2013-06-19 19:06:00,
2013-06-19 12:11:00,68.0,51.7,29.99,WNW,293,2.7,3.6,56,0.00,,,0.00,WUHU216HW,2013-06-19 19:11:00,
2013-06-19 12:16:00,68.2,50.9,29.99,WNW,293,1.6,3.4,54,0.00,,,0.00,WUHU216HW,2013-06-19 19:16:00,
2013-06-19 12:21:00,68.0,51.2,29.99,WNW,293,2.9,4.7,55,0.00,,,0.00,WUHU216HW,2013-06-19 19:21:00,
2013-06-19 12:27:00,68.6,51.8,29.99,SW,225,3.4,4.7,55,0.00,,,0.00,WUHU216HW,2013-06-19 19:27:00,
2013-06-19 12:32:00,68.8,51.0,29.99,West,270,1.8,4.5,53,0.00,,,0.00,WUHU216HW,2013-06-19 19:32:00,
2013-06-19 12:37:00,68.8,51.4,29.99,NNW,338,1.8,2.9,54,0.00,,,0.00,WUHU216HW,2013-06-19 19:37:00,
2013-06-19 12:42:00,68.9,51.1,29.99,NW,315,1.3,3.4,53,0.00,,,0.00,WUHU216HW,2013-06-19 19:42:00,
2013-06-19 12:47:00,69.5,52.1,29.99,West,270,0.9,4.0,54,0.00,,,0.00,WUHU216HW,2013-06-19 19:47:00,
2013-06-19 12:52:00,68.6,51.2,29.99,NW,315,2.2,4.0,54,0.00,,,0.00,WUHU216HW,2013-06-19 19:52:00,
2013-06-19 12:57:00,67.9,50.0,29.99,WNW,293,2.2,4.0,53,0.00,,,0.00,WUHU216HW,2013-06-19 19:57:00,
2013-06-19 13:02:00,68.0,50.8,29.99,WNW,293,3.4,4.0,54,0.00,,,0.00,WUHU216HW,2013-06-19 20:02:00,
2013-06-19 13:07:00,68.4,51.0,29.99,WSW,248,4.3,4.3,54,0.00,,,0.00,WUHU216HW,2013-06-19 20:07:00,
2013-06-19 13:12:00,68.8,50.4,29.98,WSW,248,2.7,4.3,52,0.00,,,0.00,WUHU216HW,2013-06-19 20:12:00,
2013-06-19 13:17:00,68.8,51.4,29.98,SSW,203,2.9,3.4,54,0.00,,,0.00,WUHU216HW,2013-06-19 20:17:00,
2013-06-19 13:22:00,69.7,50.8,29.98,WSW,248,2.5,6.9,51,0.00,,,0.00,WUHU216HW,2013-06-19 20:22:00,
2013-06-19 13:27:00,70.0,51.0,29.98,NW,315,1.1,6.9,51,0.00,,,0.00,WUHU216HW,2013-06-19 20:27:00,
2013-06-19 13:32:00,70.2,51.2,29.98,SW,225,6.0,6.0,51,0.00,,,0.00,WUHU216HW,2013-06-19 20:32:00,
2013-06-19 13:37:00,70.6,52.0,29.98,NW,315,4.3,6.0,52,0.00,,,0.00,WUHU216HW,2013-06-19 20:37:00,
2013-06-19 13:42:00,70.7,50.6,29.98,WSW,248,4.0,4.3,49,0.00,,,0.00,WUHU216HW,2013-06-19 20:42:00,
2013-06-19 13:47:00,70.9,51.4,29.98,NNW,338,1.3,4.0,50,0.00,,,0.00,WUHU216HW,2013-06-19 20:47:00,
2013-06-19 13:53:00,70.9,51.8,29.98,WNW,293,1.8,3.6,51,0.00,,,0.00,WUHU216HW,2013-06-19 20:53:00,
2013-06-19 13:58:00,70.2,51.2,29.98,SW,225,2.7,3.6,51,0.00,,,0.00,WUHU216HW,2013-06-19 20:58:00,
2013-06-19 14:03:00,70.6,51.6,29.98,WNW,293,2.9,3.4,51,0.00,,,0.00,WUHU216HW,2013-06-19 21:03:00,
2013-06-19 14:08:00,70.0,51.0,29.97,West,270,1.1,4.3,51,0.00,,,0.00,WUHU216HW,2013-06-19 21:08:00,
2013-06-19 14:13:00,70.4,51.4,29.98,WSW,248,3.6,4.3,51,0.00,,,0.00,WUHU216HW,2013-06-19 21:13:00,
2013-06-19 14:18:00,70.9,51.4,29.98,West,270,4.3,4.3,50,0.00,,,0.00,WUHU216HW,2013-06-19 21:18:00,
2013-06-19 14:23:00,71.6,52.0,29.98,West,270,2.2,4.3,50,0.00,,,0.00,WUHU216HW,2013-06-19 21:23:00,
2013-06-19 14:28:00,72.4,51.5,29.98,West,270,5.4,5.4,48,0.00,,,0.00,WUHU216HW,2013-06-19 21:28:00,
2013-06-19 14:33:00,71.6,50.9,29.98,NNW,338,2.2,5.4,48,0.00,,,0.00,WUHU216HW,2013-06-19 21:33:00,
2013-06-19 14:38:00,71.3,51.1,29.98,WSW,248,4.0,5.4,49,0.00,,,0.00,WUHU216HW,2013-06-19 21:38:00,
2013-06-19 14:43:00,72.0,51.8,29.98,WNW,293,1.6,4.0,49,0.00,,,0.00,WUHU216HW,2013-06-19 21:43:00,
2013-06-19 14:48:00,72.5,51.7,29.98,West,270,2.5,4.0,48,0.00,,,0.00,WUHU216HW,2013-06-19 21:48:00,
2013-06-19 14:53:00,72.4,51.5,29.98,SSW,203,3.4,4.5,48,0.00,,,0.00,WUHU216HW,2013-06-19 21:53:00,
2013-06-19 14:58:00,71.8,51.6,29.98,WSW,248,1.6,5.4,49,0.00,,,0.00,WUHU216HW,2013-06-19 21:58:00,
2013-06-19 15:03:00,71.6,52.6,29.98,WNW,293,1.8,5.4,51,0.00,,,0.00,WUHU216HW,2013-06-19 22:03:00,
2013-06-19 15:08:00,72.0,52.8,29.98,NW,315,2.5,4.9,51,0.00,,,0.00,WUHU216HW,2013-06-19 22:08:00,
2013-06-19 15:13:00,72.5,52.2,29.98,West,270,4.0,4.9,49,0.00,,,0.00,WUHU216HW,2013-06-19 22:13:00,
2013-06-19 15:19:00,71.6,52.0,29.98,WSW,248,4.0,4.0,50,0.00,,,0.00,WUHU216HW,2013-06-19 22:19:00,
2013-06-19 15:24:00,71.1,51.6,29.98,NW,315,2.9,4.0,50,0.00,,,0.00,WUHU216HW,2013-06-19 22:24:00,
2013-06-19 15:29:00,70.6,51.6,29.97,WSW,248,2.7,4.0,51,0.00,,,0.00,WUHU216HW,2013-06-19 22:29:00,
2013-06-19 15:34:00,71.6,52.6,29.97,WSW,248,3.4,4.0,51,0.00,,,0.00,WUHU216HW,2013-06-19 22:34:00,
2013-06-19 15:39:00,72.0,51.8,29.97,North,0,4.0,4.7,49,0.00,,,0.00,WUHU216HW,2013-06-19 22:39:00,
2013-06-19 15:44:00,71.5,51.3,29.97,WNW,293,3.8,6.5,49,0.00,,,0.00,WUHU216HW,2013-06-19 22:44:00,
2013-06-19 15:49:00,70.6,51.0,29.97,NNE,23,1.3,6.5,50,0.00,,,0.00,WUHU216HW,2013-06-19 22:49:00,
2013-06-19 15:54:00,71.8,52.2,29.97,WSW,248,1.8,4.3,50,0.00,,,0.00,WUHU216HW,2013-06-19 22:54:00,
2013-06-19 15:59:00,72.0,50.6,29.97,NNW,338,4.0,5.1,47,0.00,,,0.00,WUHU216HW,2013-06-19 22:59:00,
2013-06-19 16:04:00,70.9,50.2,29.97,NNW,338,3.6,5.1,48,0.00,,,0.00,WUHU216HW,2013-06-19 23:04:00,
2013-06-19 16:09:00,70.9,49.6,29.97,NW,315,3.4,4.5,47,0.00,,,0.00,WUHU216HW,2013-06-19 23:09:00,
2013-06-19 16:14:00,72.0,51.1,29.97,NW,315,2.9,4.0,48,0.00,,,0.00,WUHU216HW,2013-06-19 23:14:00,
2013-06-19 16:19:00,72.7,50.1,29.97,WSW,248,1.3,4.9,45,0.00,,,0.00,WUHU216HW,2013-06-19 23:19:00,
2013-06-19 16:24:00,74.7,51.8,29.97,WSW,248,2.5,4.9,45,0.00,,,0.00,WUHU216HW,2013-06-19 23:24:00,
2013-06-19 16:29:00,75.1,51.0,29.97,WSW,248,2.0,4.9,43,0.00,,,0.00,WUHU216HW,2013-06-19 23:29:00,
2013-06-19 16:35:00,75.2,51.1,29.97,NNW,338,2.7,4.0,43,0.00,,,0.00,WUHU216HW,2013-06-19 23:35:00,
2013-06-19 16:40:00,75.6,52.1,29.97,NNW,338,1.1,4.0,44,0.00,,,0.00,WUHU216HW,2013-06-19 23:40:00,
2013-06-19 16:45:00,76.3,51.0,29.97,WNW,293,1.8,2.7,41,0.00,,,0.00,WUHU216HW,2013-06-19 23:45:00,
2013-06-19 16:50:00,77.0,51.6,29.97,WSW,248,4.0,4.0,41,0.00,,,0.00,WUHU216HW,2013-06-19 23:50:00,
2013-06-19 16:55:00,77.8,52.2,29.97,West,270,0.7,4.7,41,0.00,,,0.00,WUHU216HW,2013-06-19 23:55:00,
2013-06-19 17:00:00,77.2,51.1,29.97,SSW,203,2.5,4.7,40,0.00,,,0.00,WUHU216HW,2013-06-20 00:00:00,
2013-06-19 17:05:00,76.7,51.2,29.97,West,270,3.4,4.7,41,0.00,,,0.00,WUHU216HW,2013-06-20 00:05:00,
2013-06-19 17:10:00,77.0,52.7,29.97,WSW,248,1.8,4.7,43,0.00,,,0.00,WUHU216HW,2013-06-20 00:10:00,
2013-06-19 17:15:00,78.1,51.9,29.97,SW,225,2.0,4.3,40,0.00,,,0.00,WUHU216HW,2013-06-20 00:15:00,
2013-06-19 17:20:00,78.7,50.0,29.97,NNW,338,2.2,4.3,37,0.00,,,0.00,WUHU216HW,2013-06-20 00:20:00,
2013-06-19 17:25:00,77.8,51.6,29.97,SSW,203,4.5,4.5,40,0.00,,,0.00,WUHU216HW,2013-06-20 00:25:00,
2013-06-19 17:30:00,78.8,51.8,29.97,SW,225,3.1,4.5,39,0.00,,,0.00,WUHU216HW,2013-06-20 00:30:00,
2013-06-19 17:35:00,78.1,51.1,29.97,WNW,293,2.2,4.3,39,0.00,,,0.00,WUHU216HW,2013-06-20 00:35:00,
2013-06-19 17:40:00,76.3,51.0,29.97,NW,315,1.6,4.3,41,0.00,,,0.00,WUHU216HW,2013-06-20 00:40:00,
2013-06-19 17:45:00,76.1,51.4,29.97,NW,315,1.1,4.0,42,0.00,,,0.00,WUHU216HW,2013-06-20 00:45:00,
2013-06-19 17:51:00,76.7,51.2,29.97,NW,315,2.5,3.1,41,0.00,,,0.00,WUHU216HW,2013-06-20 00:51:00,
2013-06-19 17:56:00,76.1,51.4,29.96,WSW,248,2.5,3.1,42,0.00,,,0.00,WUHU216HW,2013-06-20 00:56:00,
2013-06-19 18:01:00,76.5,51.7,29.96,West,270,2.5,2.7,42,0.00,,,0.00,WUHU216HW,2013-06-20 01:01:00,
2013-06-19 18:06:00,77.4,51.8,29.96,NNW,338,2.0,4.0,41,0.00,,,0.00,WUHU216HW,2013-06-20 01:06:00,
2013-06-19 18:11:00,76.1,52.6,29.96,ENE,68,0.7,3.8,44,0.00,,,0.00,WUHU216HW,2013-06-20 01:11:00,
2013-06-19 18:16:00,77.2,52.3,29.96,SSE,158,4.0,4.0,42,0.00,,,0.00,WUHU216HW,2013-06-20 01:16:00,
2013-06-19 18:21:00,76.9,52.0,29.96,West,270,1.1,4.7,42,0.00,,,0.00,WUHU216HW,2013-06-20 01:21:00,
2013-06-19 18:26:00,74.7,51.3,29.96,WNW,293,1.1,4.7,44,0.00,,,0.00,WUHU216HW,2013-06-20 01:26:00,
2013-06-19 18:31:00,73.4,51.3,29.96,WNW,293,1.3,4.3,46,0.00,,,0.00,WUHU216HW,2013-06-20 01:31:00,
2013-06-19 18:36:00,72.4,50.9,29.97,NW,315,3.8,3.8,47,0.00,,,0.00,WUHU216HW,2013-06-20 01:36:00,
2013-06-19 18:41:00,72.0,51.1,29.97,South,180,2.9,3.8,48,0.00,,,0.00,WUHU216HW,2013-06-20 01:41:00,
2013-06-19 18:46:00,71.1,50.9,29.97,West,270,1.3,3.1,49,0.00,,,0.00,WUHU216HW,2013-06-20 01:46:00,
2013-06-19 18:51:00,69.8,50.4,29.97,NW,315,1.1,3.1,50,0.00,,,0.00,WUHU216HW,2013-06-20 01:51:00,
2013-06-19 18:56:00,69.1,49.8,29.97,SSW,203,4.9,4.9,50,0.00,,,0.00,WUHU216HW,2013-06-20 01:56:00,
2013-06-19 19:01:00,68.8,50.0,29.97,NNE,23,0.0,4.9,51,0.00,,,0.00,WUHU216HW,2013-06-20 02:01:00,
2013-06-19 19:07:00,69.7,50.8,29.97,SSW,203,1.8,3.6,51,0.00,,,0.00,WUHU216HW,2013-06-20 02:07:00,
2013-06-19 19:12:00,69.7,50.8,29.97,WSW,248,2.5,3.6,51,0.00,,,0.00,WUHU216HW,2013-06-20 02:12:00,
2013-06-19 19:17:00,68.2,50.0,29.98,WSW,248,2.7,4.5,52,0.00,,,0.00,WUHU216HW,2013-06-20 02:17:00,
2013-06-19 19:22:00,67.3,49.6,29.97,SW,225,1.8,4.5,53,0.00,,,0.00,WUHU216HW,2013-06-20 02:22:00,
2013-06-19 19:27:00,67.1,50.4,29.97,West,270,1.3,3.1,55,0.00,,,0.00,WUHU216HW,2013-06-20 02:27:00,
2013-06-19 19:32:00,67.0,50.2,29.98,SW,225,3.1,4.5,55,0.00,,,0.00,WUHU216HW,2013-06-20 02:32:00,
2013-06-19 19:37:00,65.9,50.2,29.98,SW,225,2.9,4.5,57,0.00,,,0.00,WUHU216HW,2013-06-20 02:37:00,
2013-06-19 19:42:00,65.0,50.3,29.98,West,270,2.0,2.9,59,0.00,,,0.00,WUHU216HW,2013-06-20 02:42:00,
2013-06-19 19:47:00,64.4,50.2,29.98,South,180,1.8,2.0,60,0.00,,,0.00,WUHU216HW,2013-06-20 02:47:00,
2013-06-19 19:52:00,64.1,49.4,29.98,WSW,248,0.9,2.0,59,0.00,,,0.00,WUHU216HW,2013-06-20 02:52:00,
2013-06-19 19:57:00,63.7,50.1,29.98,WNW,293,2.9,3.6,61,0.00,,,0.00,WUHU216HW,2013-06-20 02:57:00,
2013-06-19 20:02:00,63.2,49.5,29.99,SSW,203,4.0,4.0,61,0.00,,,0.00,WUHU216HW,2013-06-20 03:02:00,
2013-06-19 20:07:00,62.8,49.6,29.99,WSW,248,2.7,4.0,62,0.00,,,0.00,WUHU216HW,2013-06-20 03:07:00,
2013-06-19 20:12:00,62.5,49.7,29.99,West,270,2.5,4.0,63,0.00,,,0.00,WUHU216HW,2013-06-20 03:12:00,
2013-06-19 20:18:00,62.1,49.8,29.99,WSW,248,1.1,4.0,64,0.00,,,0.00,WUHU216HW,2013-06-20 03:18:00,
2013-06-19 20:23:00,61.7,49.1,29.99,SSW,203,1.3,4.5,63,0.00,,,0.00,WUHU216HW,2013-06-20 03:23:00,
2013-06-19 20:28:00,61.7,49.1,29.99,SSE,158,0.9,4.5,63,0.00,,,0.00,WUHU216HW,2013-06-20 03:28:00,
2013-06-19 20:33:00,61.9,49.6,29.99,SSW,203,1.1,1.8,64,0.00,,,0.00,WUHU216HW,2013-06-20 03:33:00,
2013-06-19 20:38:00,62.5,50.1,29.98,WSW,248,2.5,2.5,64,0.00,,,0.00,WUHU216HW,2013-06-20 03:38:00,
2013-06-19 20:43:00,62.6,50.2,29.98,SSW,203,0.4,2.5,64,0.00,,,0.00,WUHU216HW,2013-06-20 03:43:00,
2013-06-19 20:48:00,62.6,49.9,29.98,SE,135,0.0,2.5,63,0.00,,,0.00,WUHU216HW,2013-06-20 03:48:00,
2013-06-19 20:53:00,62.6,50.2,29.98,SW,225,0.7,2.5,64,0.00,,,0.00,WUHU216HW,2013-06-20 03:53:00,
2013-06-19 20:58:00,62.3,49.5,29.98,SW,225,2.0,4.5,63,0.00,,,0.00,WUHU216HW,2013-06-20 03:58:00,
2013-06-19 21:01:00,62.3,49.5,29.98,WSW,248,1.1,4.5,63,0.00,,,0.00,WUHU216HW,2013-06-20 04:01:00,
2013-06-19 21:02:00,62.1,49.3,29.98,WSW,248,2.7,4.5,63,0.00,,,0.00,WUHU216HW,2013-06-20 04:02:00,
2013-06-19 21:03:00,61.9,49.2,29.98,SSW,203,1.3,4.5,63,0.00,,,0.00,WUHU216HW,2013-06-20 04:03:00,
2013-06-19 21:08:00,61.7,49.4,29.98,SSW,203,0.9,2.9,64,0.00,,,0.00,WUHU216HW,2013-06-20 04:08:00,
2013-06-19 21:13:00,61.6,49.3,29.98,SSW,203,0.0,2.9,64,0.00,,,0.00,WUHU216HW,2013-06-20 04:13:00,
2013-06-19 21:18:00,61.7,49.9,29.98,SW,225,3.4,3.4,65,0.00,,,0.00,WUHU216HW,2013-06-20 04:18:00,
2013-06-19 21:23:00,61.6,49.7,29.98,WSW,248,3.4,3.4,65,0.00,,,0.00,WUHU216HW,2013-06-20 04:23:00,
2013-06-19 21:28:00,61.2,50.2,29.99,SW,225,4.0,4.0,67,0.00,,,0.00,WUHU216HW,2013-06-20 04:28:00,
2013-06-19 21:33:00,61.6,49.7,29.99,WSW,248,1.3,4.0,65,0.00,,,0.00,WUHU216HW,2013-06-20 04:33:00,
2013-06-19 21:38:00,61.2,49.4,29.98,WSW,248,0.0,1.3,65,0.00,,,0.00,WUHU216HW,2013-06-20 04:38:00,
2013-06-19 21:43:00,60.8,49.1,29.98,SE,135,1.8,1.8,65,0.00,,,0.00,WUHU216HW,2013-06-20 04:43:00,
2013-06-19 21:49:00,60.5,48.7,29.98,SSE,158,0.9,1.8,65,0.00,,,0.00,WUHU216HW,2013-06-20 04:49:00,
2013-06-19 21:54:00,60.1,48.3,29.99,SSE,158,0.9,1.1,65,0.00,,,0.00,WUHU216HW,2013-06-20 04:54:00,
2013-06-19 21:59:00,59.9,48.2,29.98,South,180,0.4,1.1,65,0.00,,,0.00,WUHU216HW,2013-06-20 04:59:00,
2013-06-19 22:04:00,59.8,48.0,29.98,SSE,158,0.4,1.1,65,0.00,,,0.00,WUHU216HW,2013-06-20 05:04:00,
2013-06-19 22:09:00,59.6,47.8,29.99,SE,135,0.4,1.1,65,0.00,,,0.00,WUHU216HW,2013-06-20 05:09:00,
2013-06-19 22:14:00,59.2,47.9,29.98,ESE,113,1.3,1.8,66,0.00,,,0.00,WUHU216HW,2013-06-20 05:14:00,
2013-06-19 22:19:00,59.4,48.4,29.98,SE,135,0.0,2.5,67,0.00,,,0.00,WUHU216HW,2013-06-20 05:19:00,
2013-06-19 22:24:00,59.6,48.6,29.99,SSE,158,0.2,2.5,67,0.00,,,0.00,WUHU216HW,2013-06-20 05:24:00,
2013-06-19 22:29:00,59.4,48.1,29.98,ESE,113,1.6,2.2,66,0.00,,,0.00,WUHU216HW,2013-06-20 05:29:00,
2013-06-19 22:34:00,59.4,48.4,29.98,ESE,113,0.4,2.2,67,0.00,,,0.00,WUHU216HW,2013-06-20 05:34:00,
2013-06-19 22:39:00,59.6,48.6,29.98,SE,135,0.0,1.8,67,0.00,,,0.00,WUHU216HW,2013-06-20 05:39:00,
2013-06-19 22:44:00,59.4,48.4,29.98,WSW,248,0.9,1.3,67,0.00,,,0.00,WUHU216HW,2013-06-20 05:44:00,
2013-06-19 22:49:00,59.6,49.1,29.98,WSW,248,0.0,0.9,68,0.00,,,0.00,WUHU216HW,2013-06-20 05:49:00,
2013-06-19 22:54:00,59.4,48.9,29.98,SW,225,0.9,0.9,68,0.00,,,0.00,WUHU216HW,2013-06-20 05:54:00,
2013-06-19 22:59:00,59.4,49.2,29.98,WSW,248,0.0,1.6,69,0.00,,,0.00,WUHU216HW,2013-06-20 05:59:00,
2013-06-19 23:05:00,59.0,48.9,29.98,WSW,248,0.0,1.6,69,0.00,,,0.00,WUHU216HW,2013-06-20 06:05:00,
2013-06-19 23:10:00,58.7,48.5,29.98,WSW,248,0.0,0.2,69,0.00,,,0.00,WUHU216HW,2013-06-20 06:10:00,
2013-06-19 23:15:00,58.7,48.5,29.98,WSW,248,0.0,0.2,69,0.00,,,0.00,WUHU216HW,2013-06-20 06:15:00,
2013-06-19 23:20:00,58.5,48.8,29.98,SSW,203,0.4,0.4,70,0.00,,,0.00,WUHU216HW,2013-06-20 06:20:00,
2013-06-19 23:25:00,58.3,48.6,29.97,SW,225,0.4,0.4,70,0.00,,,0.00,WUHU216HW,2013-06-20 06:25:00,
2013-06-19 23:30:00,58.1,48.4,29.97,SW,225,0.0,0.4,70,0.00,,,0.00,WUHU216HW,2013-06-20 06:30:00,
2013-06-19 23:35:00,57.8,48.1,29.97,SSW,203,0.0,0.4,70,0.00,,,0.00,WUHU216HW,2013-06-20 06:35:00,
2013-06-19 23:40:00,57.6,47.9,29.97,SSW,203,0.0,0.0,70,0.00,,,0.00,WUHU216HW,2013-06-20 06:40:00,
2013-06-19 23:45:00,57.4,48.1,29.97,SW,225,0.0,0.0,71,0.00,,,0.00,WUHU216HW,2013-06-20 06:45:00,
2013-06-19 23:50:00,57.2,47.9,29.97,SSE,158,0.4,0.9,71,0.00,,,0.00,WUHU216HW,2013-06-20 06:50:00,
2013-06-19 23:55:00,57.2,47.9,29.97,SSE,158,0.0,0.9,71,0.00,,,0.00,WUHU216HW,2013-06-20 06:55:00,